Time,TemperatureF,DewpointF,PressureIn,WindDirection,WindDirectionDegrees,WindSpeedMPH,WindSpeedGustMPH,Humidity,HourlyPrecipIn,Conditions,Clouds,dailyrainin,SolarRadiationWatts/m^2,SoftwareType,DateUTC
2013-10-13 00:02:00,31.0,27.0,-100.00,North,9,3.0,6.0,84,0.00,,,0.00,0.000000,,2013-10-13 06:02:00,
2013-10-13 00:42:00,30.0,26.0,-100.00,WNW,283,2.0,4.0,85,0.00,,,0.00,0.000000,,2013-10-13 06:42:00,
2013-10-13 00:52:00,30.0,26.0,-100.00,WNW,283,2.0,4.0,85,0.00,,,0.00,0.000000,,2013-10-13 06:52:00,
2013-10-13 01:02:00,30.0,26.0,-100.00,WNW,283,2.0,4.0,85,0.00,,,0.00,0.000000,,2013-10-13 07:02:00,
2013-10-13 01:42:00,30.0,25.0,-100.00,NNE,22,3.0,5.0,83,0.00,,,0.00,0.000000,,2013-10-13 07:42:00,
2013-10-13 01:52:00,30.0,25.0,-100.00,NNE,22,3.0,5.0,83,0.00,,,0.00,0.000000,,2013-10-13 07:52:00,
2013-10-13 02:02:00,30.0,25.0,-100.00,NNE,22,3.0,5.0,83,0.00,,,0.00,0.000000,,2013-10-13 08:02:00,
2013-10-13 02:42:00,28.0,23.0,-100.00,North,6,7.0,11.0,82,0.00,,,0.00,0.000000,,2013-10-13 08:42:00,
2013-10-13 02:52:00,28.0,23.0,-100.00,North,6,7.0,11.0,82,0.00,,,0.00,0.000000,,2013-10-13 08:52:00,
2013-10-13 03:02:00,28.0,23.0,-100.00,North,6,7.0,11.0,82,0.00,,,0.00,0.000000,,2013-10-13 09:02:00,
2013-10-13 03:43:00,28.0,24.0,-100.00,North,3,6.0,11.0,84,0.00,,,0.00,0.000000,,2013-10-13 09:43:00,
2013-10-13 03:53:00,28.0,24.0,-100.00,North,3,6.0,11.0,84,0.00,,,0.00,0.000000,,2013-10-13 09:53:00,
2013-10-13 04:03:00,28.0,24.0,-100.00,North,3,6.0,11.0,84,0.00,,,0.00,0.000000,,2013-10-13 10:03:00,
2013-10-13 04:43:00,29.0,24.0,-100.00,North,11,7.0,10.0,81,0.00,,,0.00,0.000000,,2013-10-13 10:43:00,
2013-10-13 04:53:00,29.0,24.0,-100.00,North,11,7.0,10.0,81,0.00,,,0.00,0.000000,,2013-10-13 10:53:00,
2013-10-13 05:03:00,29.0,24.0,-100.00,North,11,7.0,10.0,81,0.00,,,0.00,0.000000,,2013-10-13 11:03:00,
2013-10-13 05:42:00,28.0,25.0,-100.00,NNE,15,7.0,10.0,88,0.00,,,0.00,0.000000,,2013-10-13 11:42:00,
2013-10-13 05:52:00,28.0,25.0,-100.00,NNE,15,7.0,10.0,88,0.00,,,0.00,0.000000,,2013-10-13 11:52:00,
2013-10-13 06:01:00,28.0,25.0,-100.00,NNE,15,7.0,10.0,88,0.00,,,0.00,0.000000,,2013-10-13 12:01:00,
2013-10-13 06:42:00,27.0,24.0,-100.00,North,359,7.0,10.0,87,0.00,,,0.00,0.000000,,2013-10-13 12:42:00,
2013-10-13 06:52:00,27.0,24.0,-100.00,North,359,7.0,10.0,87,0.00,,,0.00,0.000000,,2013-10-13 12:52:00,
2013-10-13 07:02:00,27.0,24.0,-100.00,North,359,7.0,10.0,87,0.00,,,0.00,0.000000,,2013-10-13 13:02:00,
2013-10-13 07:42:00,28.0,25.0,-100.00,North,354,6.0,10.0,89,0.00,,,0.00,0.000000,,2013-10-13 13:42:00,
2013-10-13 07:52:00,28.0,25.0,-100.00,North,354,6.0,10.0,89,0.00,,,0.00,0.000000,,2013-10-13 13:52:00,
2013-10-13 08:02:00,28.0,25.0,-100.00,North,354,6.0,10.0,89,0.00,,,0.00,0.000000,,2013-10-13 14:02:00,
2013-10-13 08:42:00,28.0,25.0,-100.00,North,2,6.0,10.0,88,0.00,,,0.00,1.000000,,2013-10-13 14:42:00,
2013-10-13 08:52:00,28.0,25.0,-100.00,North,2,6.0,10.0,88,0.00,,,0.00,1.000000,,2013-10-13 14:52:00,
2013-10-13 09:01:00,28.0,25.0,-100.00,North,2,6.0,10.0,88,0.00,,,0.00,1.000000,,2013-10-13 15:01:00,
2013-10-13 09:43:00,28.0,25.0,-100.00,North,349,6.0,10.0,89,0.00,,,0.00,58.000000,,2013-10-13 15:43:00,
2013-10-13 09:54:00,28.0,25.0,-100.00,North,349,6.0,10.0,89,0.00,,,0.00,58.000000,,2013-10-13 15:54:00,
2013-10-13 10:03:00,28.0,25.0,-100.00,North,349,6.0,10.0,89,0.00,,,0.00,58.000000,,2013-10-13 16:03:00,
2013-10-13 10:43:00,32.0,27.0,-100.00,North,8,4.0,8.0,83,0.00,,,0.00,266.000000,,2013-10-13 16:43:00,
2013-10-13 10:54:00,32.0,27.0,-100.00,North,8,4.0,8.0,83,0.00,,,0.00,266.000000,,2013-10-13 16:54:00,
2013-10-13 11:03:00,32.0,27.0,-100.00,North,8,4.0,8.0,83,0.00,,,0.00,266.000000,,2013-10-13 17:03:00,
2013-10-13 11:43:00,33.0,27.0,-100.00,NW,308,5.0,7.0,79,0.00,,,0.00,459.000000,,2013-10-13 17:43:00,
2013-10-13 11:52:00,33.0,27.0,-100.00,NW,308,5.0,7.0,79,0.00,,,0.00,459.000000,,2013-10-13 17:52:00,
2013-10-13 12:02:00,33.0,27.0,-100.00,NW,308,5.0,7.0,79,0.00,,,0.00,459.000000,,2013-10-13 18:02:00,
2013-10-13 12:42:00,35.0,29.0,-100.00,NW,320,7.0,11.0,77,0.00,,,0.00,620.000000,,2013-10-13 18:42:00,
2013-10-13 12:52:00,35.0,29.0,-100.00,NW,320,7.0,11.0,77,0.00,,,0.00,620.000000,,2013-10-13 18:52:00,
2013-10-13 13:01:00,35.0,29.0,-100.00,NW,320,7.0,11.0,77,0.00,,,0.00,620.000000,,2013-10-13 19:01:00,
2013-10-13 13:42:00,37.0,29.0,-100.00,WNW,301,5.0,10.0,72,0.00,,,0.00,695.000000,,2013-10-13 19:42:00,
2013-10-13 13:52:00,37.0,29.0,-100.00,WNW,301,5.0,10.0,72,0.00,,,0.00,695.000000,,2013-10-13 19:52:00,
2013-10-13 14:01:00,37.0,29.0,-100.00,WNW,301,5.0,10.0,72,0.00,,,0.00,695.000000,,2013-10-13 20:01:00,
2013-10-13 14:43:00,40.0,29.0,-100.00,NW,316,7.0,11.0,65,0.00,,,0.00,721.000000,,2013-10-13 20:43:00,
2013-10-13 14:52:00,40.0,29.0,-100.00,NW,316,7.0,11.0,65,0.00,,,0.00,721.000000,,2013-10-13 20:52:00,
2013-10-13 15:02:00,40.0,29.0,-100.00,NW,316,7.0,11.0,65,0.00,,,0.00,721.000000,,2013-10-13 21:02:00,
2013-10-13 15:44:00,39.0,27.0,-100.00,NW,321,11.0,17.0,63,0.00,,,0.00,680.000000,,2013-10-13 21:44:00,
2013-10-13 15:55:00,39.0,27.0,-100.00,NW,321,11.0,17.0,63,0.00,,,0.00,680.000000,,2013-10-13 21:55:00,
2013-10-13 16:03:00,39.0,27.0,-100.00,NW,321,11.0,17.0,63,0.00,,,0.00,680.000000,,2013-10-13 22:03:00,
2013-10-13 16:43:00,36.0,25.0,-100.00,NNW,328,12.0,17.0,65,0.00,,,0.00,408.000000,,2013-10-13 22:43:00,
2013-10-13 16:53:00,36.0,25.0,-100.00,NNW,328,12.0,17.0,65,0.00,,,0.00,408.000000,,2013-10-13 22:53:00,
2013-10-13 17:02:00,36.0,25.0,-100.00,NNW,328,12.0,17.0,65,0.00,,,0.00,408.000000,,2013-10-13 23:02:00,
2013-10-13 17:42:00,35.0,27.0,-100.00,NNW,348,11.0,20.0,71,0.00,,,0.00,157.000000,,2013-10-13 23:42:00,
2013-10-13 17:52:00,35.0,27.0,-100.00,NNW,348,11.0,20.0,71,0.00,,,0.00,157.000000,,2013-10-13 23:52:00,
2013-10-13 18:01:00,35.0,27.0,-100.00,NNW,348,11.0,20.0,71,0.00,,,0.00,157.000000,,2013-10-14 00:01:00,
2013-10-13 18:42:00,33.0,27.0,-100.00,NNW,336,13.0,19.0,79,0.00,,,0.00,53.000000,,2013-10-14 00:42:00,
2013-10-13 18:52:00,33.0,27.0,-100.00,NNW,336,13.0,19.0,79,0.00,,,0.00,53.000000,,2013-10-14 00:52:00,
2013-10-13 19:01:00,33.0,27.0,-100.00,NNW,336,13.0,19.0,79,0.00,,,0.00,53.000000,,2013-10-14 01:01:00,
2013-10-13 19:42:00,32.0,28.0,-100.00,NNW,339,12.0,19.0,85,0.00,,,0.00,15.000000,,2013-10-14 01:42:00,
2013-10-13 19:52:00,32.0,28.0,-100.00,NNW,339,12.0,19.0,85,0.00,,,0.00,15.000000,,2013-10-14 01:52:00,
2013-10-13 20:02:00,32.0,28.0,-100.00,NNW,339,12.0,19.0,85,0.00,,,0.00,15.000000,,2013-10-14 02:02:00,
2013-10-13 20:42:00,32.0,27.0,-100.00,NNW,327,15.0,21.0,81,0.00,,,0.00,0.000000,,2013-10-14 02:42:00,
2013-10-13 20:52:00,32.0,27.0,-100.00,NNW,327,15.0,21.0,81,0.00,,,0.00,0.000000,,2013-10-14 02:52:00,
2013-10-13 21:02:00,32.0,27.0,-100.00,NNW,327,15.0,21.0,81,0.00,,,0.00,0.000000,,2013-10-14 03:02:00,
2013-10-13 21:44:00,30.0,27.0,-100.00,NNW,327,11.0,20.0,88,0.00,,,0.00,0.000000,,2013-10-14 03:44:00,
2013-10-13 21:55:00,30.0,27.0,-100.00,NNW,327,11.0,20.0,88,0.00,,,0.00,0.000000,,2013-10-14 03:55:00,
2013-10-13 22:04:00,30.0,27.0,-100.00,NNW,327,11.0,20.0,88,0.00,,,0.00,0.000000,,2013-10-14 04:04:00,
2013-10-13 22:44:00,31.0,28.0,-100.00,North,3,7.0,17.0,87,0.00,,,0.00,0.000000,,2013-10-14 04:44:00,
2013-10-13 22:54:00,31.0,28.0,-100.00,North,3,7.0,17.0,87,0.00,,,0.00,0.000000,,2013-10-14 04:54:00,
2013-10-13 23:03:00,31.0,28.0,-100.00,North,3,7.0,17.0,87,0.00,,,0.00,0.000000,,2013-10-14 05:03:00,
2013-10-13 23:43:00,31.0,26.0,-100.00,North,355,8.0,17.0,83,0.00,,,0.00,0.000000,,2013-10-14 05:43:00,
2013-10-13 23:52:00,31.0,26.0,-100.00,North,355,8.0,17.0,83,0.00,,,0.00,0.000000,,2013-10-14 05:52:00,